Time;durP1;ratioP1;P1;durP2;ratioP2;P2;SDS_P1;SDS_P2;PMS_P1;PMS_P2;Temp;Humidity;BMP_temperature;BMP_pressure;BME280_temperature;BME280_humidity;BME280_pressure;Samples;Min_cycle;Max_cycle;Signal;HPM_P1;HPM_P2
2023/04/30 00:02:13;;;;;;;18.38;3.80;;;4.00;88.40;;;;;;5021028;28;20433;-81
2023/04/30 00:04:40;;;;;;;11.55;3.60;;;4.00;88.00;;;;;;5027222;28;20049;-82
2023/04/30 00:07:07;;;;;;;10.27;3.17;;;4.00;88.10;;;;;;5028797;28;20440;-81
2023/04/30 00:09:34;;;;;;;18.60;4.15;;;3.90;88.00;;;;;;5025986;28;20045;-80
2023/04/30 00:12:01;;;;;;;14.95;3.55;;;3.90;88.60;;;;;;5025908;28;20087;-80
2023/04/30 00:14:28;;;;;;;13.15;3.70;;;3.80;89.00;;;;;;5020677;28;20049;-81
2023/04/30 00:16:54;;;;;;;16.00;3.65;;;3.80;88.90;;;;;;5025331;28;20084;-81
2023/04/30 00:19:21;;;;;;;12.15;3.88;;;3.80;88.70;;;;;;5019931;28;20403;-80
2023/04/30 00:21:48;;;;;;;27.23;4.00;;;3.90;88.50;;;;;;5026305;28;20399;-80
2023/04/30 00:24:15;;;;;;;23.55;3.85;;;3.90;88.50;;;;;;5025401;28;20045;-80
2023/04/30 00:26:42;;;;;;;12.95;3.08;;;3.90;87.80;;;;;;5031565;28;20045;-81
2023/04/30 00:29:10;;;;;;;23.88;4.00;;;3.90;87.60;;;;;;5015777;28;20136;-82
2023/04/30 00:31:38;;;;;;;23.95;4.22;;;3.90;87.50;;;;;;5023444;28;20502;-81
2023/04/30 00:34:05;;;;;;;24.58;4.55;;;3.80;88.00;;;;;;5024401;28;20084;-81
2023/04/30 00:36:32;;;;;;;11.18;4.07;;;3.90;87.90;;;;;;5024871;28;20345;-82
2023/04/30 00:38:59;;;;;;;12.80;3.97;;;3.80;88.20;;;;;;5017697;28;20053;-81
2023/04/30 00:41:27;;;;;;;18.33;2.97;;;3.80;88.30;;;;;;5018783;28;20068;-82
2023/04/30 00:43:54;;;;;;;10.63;3.17;;;3.80;88.40;;;;;;5018932;28;20415;-80
2023/04/30 00:46:20;;;;;;;15.02;3.60;;;3.80;88.10;;;;;;5026497;28;20046;-82
2023/04/30 00:48:48;;;;;;;20.52;3.40;;;3.70;87.70;;;;;;5026518;28;20397;-80
2023/04/30 00:51:15;;;;;;;15.05;3.65;;;3.70;88.90;;;;;;5021126;28;20095;-81
2023/04/30 00:53:43;;;;;;;27.30;3.40;;;3.70;88.80;;;;;;5023275;28;20549;-81
2023/04/30 00:56:10;;;;;;;20.17;4.20;;;3.60;88.70;;;;;;5020515;28;20065;-81
2023/04/30 00:58:36;;;;;;;17.85;3.17;;;3.50;89.00;;;;;;5020139;28;20054;-81
2023/04/30 01:01:03;;;;;;;14.07;3.35;;;3.50;88.70;;;;;;5019630;28;20493;-81
2023/04/30 01:03:30;;;;;;;17.10;3.72;;;3.40;89.00;;;;;;5026158;28;20568;-81
2023/04/30 01:05:57;;;;;;;18.02;3.58;;;3.50;88.70;;;;;;5027916;28;20057;-81
2023/04/30 01:08:25;;;;;;;14.40;3.97;;;3.40;88.70;;;;;;5023102;28;20042;-81
2023/04/30 01:11:20;;;;;;;17.33;2.83;;;3.40;88.40;;;;;;5023488;28;20111;-81
2023/04/30 01:14:07;;;;;;;22.85;4.30;;;3.40;88.10;;;;;;5021270;28;20064;-81
2023/04/30 01:16:51;;;;;;;16.40;3.10;;;3.40;88.70;;;;;;5025766;28;20524;-81
2023/04/30 01:19:30;;;;;;;13.38;3.97;;;3.30;89.00;;;;;;5020540;28;20490;-81
2023/04/30 01:22:03;;;;;;;29.13;3.80;;;3.30;88.70;;;;;;5020023;28;20049;-82
2023/04/30 01:24:58;;;;;;;16.70;2.92;;;3.30;89.10;;;;;;5026685;28;20075;-81
2023/04/30 01:28:01;;;;;;;14.68;2.78;;;3.20;89.30;;;;;;5027425;28;20045;-81
2023/04/30 01:30:30;;;;;;;13.90;3.45;;;3.10;89.70;;;;;;5018081;28;20049;-81
2023/04/30 01:32:58;;;;;;;18.85;3.30;;;3.00;89.90;;;;;;5023685;28;20047;-81
2023/04/30 01:35:40;;;;;;;16.00;3.10;;;3.00;89.90;;;;;;5024546;28;20041;-82
2023/04/30 01:38:23;;;;;;;16.33;4.13;;;2.90;89.70;;;;;;5020902;28;20402;-81
2023/04/30 01:41:00;;;;;;;10.98;3.67;;;2.90;90.40;;;;;;5017853;28;20057;-81
2023/04/30 01:43:38;;;;;;;13.75;3.10;;;2.90;90.50;;;;;;5026618;28;20065;-82
2023/04/30 01:46:17;;;;;;;8.70;3.25;;;2.90;90.40;;;;;;5024214;28;21499;-81
2023/04/30 01:49:09;;;;;;;22.90;3.15;;;2.80;90.80;;;;;;5024887;28;20052;-82
2023/04/30 01:51:46;;;;;;;12.15;3.42;;;2.80;90.40;;;;;;5021438;28;20410;-81
2023/04/30 01:54:31;;;;;;;20.23;3.38;;;2.80;90.40;;;;;;5022827;28;20057;-81
2023/04/30 01:57:26;;;;;;;21.00;3.83;;;2.80;90.00;;;;;;5022322;28;20046;-81
2023/04/30 01:59:53;;;;;;;11.00;2.90;;;2.80;90.10;;;;;;5015928;28;20042;-81
2023/04/30 02:02:20;;;;;;;19.27;3.22;;;2.80;90.10;;;;;;5021826;28;20054;-81
2023/04/30 02:04:47;;;;;;;21.70;3.15;;;2.80;90.40;;;;;;5023180;28;20052;-81
2023/04/30 02:07:37;;;;;;;9.73;3.05;;;2.70;90.50;;;;;;5021472;28;20045;-81
2023/04/30 02:10:05;;;;;;;10.82;3.22;;;2.80;90.20;;;;;;5029139;28;20058;-81
2023/04/30 02:12:32;;;;;;;15.50;3.50;;;2.70;90.20;;;;;;5024636;28;20041;-81
2023/04/30 02:14:59;;;;;;;16.73;4.13;;;2.70;90.10;;;;;;5018993;28;20045;-81
2023/04/30 02:17:26;;;;;;;8.88;3.00;;;2.70;89.90;;;;;;5019911;28;20094;-81
2023/04/30 02:19:52;;;;;;;23.10;3.13;;;2.70;90.20;;;;;;5016715;28;20054;-81
2023/04/30 02:22:19;;;;;;;13.07;3.85;;;2.70;90.40;;;;;;5015271;28;20136;-81
2023/04/30 02:24:46;;;;;;;11.52;3.30;;;2.60;90.60;;;;;;5022852;28;20046;-81
2023/04/30 02:27:13;;;;;;;11.70;3.17;;;2.60;90.50;;;;;;5024132;28;20045;-81
2023/04/30 02:29:40;;;;;;;10.85;2.90;;;2.50;90.50;;;;;;5020432;28;20041;-80
2023/04/30 02:32:07;;;;;;;15.18;3.08;;;2.40;90.40;;;;;;5011054;28;20049;-80
2023/04/30 02:34:34;;;;;;;15.52;3.33;;;2.30;90.40;;;;;;5018829;28;20132;-80
2023/04/30 02:37:02;;;;;;;15.55;3.40;;;2.30;90.60;;;;;;5029057;23;20050;-74
2023/04/30 02:39:28;;;;;;;15.93;3.25;;;2.20;90.50;;;;;;5019780;23;20394;-80
2023/04/30 02:41:55;;;;;;;16.30;3.00;;;2.20;91.10;;;;;;5027494;28;20076;-81
2023/04/30 02:44:23;;;;;;;13.93;3.15;;;2.10;91.00;;;;;;5023312;23;20064;-74
2023/04/30 02:46:50;;;;;;;12.80;3.28;;;2.10;92.00;;;;;;5000438;28;20046;-74
2023/04/30 02:52:19;;;;;;;14.98;3.45;;;2.00;92.00;;;;;;5056139;28;20052;-72
2023/04/30 02:54:45;;;;;;;15.32;3.25;;;2.00;91.30;;;;;;5058115;28;20508;-73
2023/04/30 02:57:12;;;;;;;14.70;2.85;;;1.90;92.30;;;;;;5058379;28;20461;-72
2023/04/30 02:59:39;;;;;;;22.00;3.80;;;1.90;91.70;;;;;;5053068;28;21034;-72
2023/04/30 03:02:06;;;;;;;24.05;4.25;;;1.80;92.00;;;;;;5060084;28;20067;-72
2023/04/30 03:04:33;;;;;;;11.60;3.95;;;1.80;92.40;;;;;;5057825;28;20066;-72
2023/04/30 03:06:59;;;;;;;28.42;4.00;;;1.70;92.60;;;;;;5056085;28;20496;-73
2023/04/30 03:09:26;;;;;;;19.98;3.95;;;1.70;92.60;;;;;;5054020;28;20053;-72
2023/04/30 03:11:53;;;;;;;17.08;3.70;;;1.70;92.70;;;;;;5061496;28;20512;-75
2023/04/30 03:14:20;;;;;;;19.92;4.43;;;1.70;92.40;;;;;;5046643;28;20044;-75
2023/04/30 03:16:47;;;;;;;11.98;3.55;;;1.70;93.10;;;;;;5057810;28;20489;-75
2023/04/30 03:19:14;;;;;;;13.07;3.15;;;1.60;92.60;;;;;;5059133;28;20501;-75
2023/04/30 03:21:40;;;;;;;14.60;4.30;;;1.70;92.70;;;;;;5055500;28;20078;-75
2023/04/30 03:24:07;;;;;;;17.50;3.47;;;1.60;92.30;;;;;;5054645;28;20068;-75
2023/04/30 03:26:34;;;;;;;16.30;3.75;;;1.60;92.30;;;;;;5055848;28;20059;-75
2023/04/30 03:29:01;;;;;;;22.30;4.05;;;1.60;92.90;;;;;;5056269;28;20381;-75
2023/04/30 03:31:28;;;;;;;14.60;3.53;;;1.50;92.40;;;;;;5049903;28;20060;-75
2023/04/30 03:33:55;;;;;;;18.98;3.22;;;1.50;92.20;;;;;;5055498;28;20045;-75
2023/04/30 03:36:21;;;;;;;13.93;3.40;;;1.50;92.60;;;;;;5053484;28;20044;-75
2023/04/30 03:38:48;;;;;;;27.05;4.18;;;1.50;92.10;;;;;;5056255;28;20059;-75
2023/04/30 03:41:15;;;;;;;10.75;3.90;;;1.40;93.00;;;;;;5056110;28;20119;-73
2023/04/30 03:46:48;;;;;;;20.85;3.25;;;1.40;92.20;;;;;;4942786;28;20054;-79
2023/04/30 03:49:15;;;;;;;14.05;3.85;;;1.40;92.40;;;;;;4945223;28;20431;-80
2023/04/30 03:51:42;;;;;;;23.25;3.78;;;1.40;92.60;;;;;;5009272;23;20059;-73
2023/04/30 03:54:09;;;;;;;15.73;3.72;;;1.40;92.40;;;;;;4965842;28;20053;-74
2023/04/30 03:56:36;;;;;;;15.85;3.92;;;1.40;92.10;;;;;;4980021;28;20050;-73
2023/04/30 03:59:05;;;;;;;17.08;3.50;;;1.30;91.80;;;;;;4980516;28;20078;-73
2023/04/30 04:01:32;;;;;;;19.10;3.88;;;1.40;92.80;;;;;;4979157;28;20050;-73
2023/04/30 04:03:58;;;;;;;16.83;4.30;;;1.40;92.60;;;;;;4981666;28;20054;-76
2023/04/30 04:06:25;;;;;;;18.75;4.50;;;1.40;91.90;;;;;;4966160;28;20811;-76
2023/04/30 04:08:53;;;;;;;18.70;5.25;;;1.40;92.20;;;;;;4977006;28;20089;-76
2023/04/30 04:16:50;;;;;;;13.45;3.28;;;1.40;91.40;;;;;;4961994;28;20303;-80
2023/04/30 04:19:17;;;;;;;16.75;3.80;;;1.50;91.10;;;;;;4960121;28;20050;-80
2023/04/30 04:21:44;;;;;;;13.88;3.90;;;1.50;91.40;;;;;;4958651;28;20578;-80
2023/04/30 04:24:11;;;;;;;19.25;4.05;;;1.60;91.80;;;;;;4970481;28;20058;-80
2023/04/30 04:26:38;;;;;;;14.60;3.55;;;1.60;91.60;;;;;;4962209;28;20050;-80
2023/04/30 04:29:04;;;;;;;18.73;3.88;;;1.60;90.90;;;;;;4979855;28;20050;-81
2023/04/30 04:31:32;;;;;;;28.20;4.00;;;1.70;91.40;;;;;;4959765;28;20055;-82
2023/04/30 04:34:03;;;;;;;17.90;4.20;;;1.70;91.60;;;;;;4952645;28;20139;-82
2023/04/30 04:36:32;;;;;;;19.30;3.97;;;1.70;92.40;;;;;;4954664;28;20046;-82
2023/04/30 04:39:02;;;;;;;18.52;3.72;;;1.80;92.00;;;;;;4963319;28;20042;-82
2023/04/30 04:41:31;;;;;;;16.35;4.22;;;1.80;90.90;;;;;;4957826;28;20047;-82
2023/04/30 04:44:00;;;;;;;14.75;5.25;;;1.80;91.60;;;;;;4969458;28;20391;-83
2023/04/30 04:46:28;;;;;;;18.42;5.40;;;1.80;90.70;;;;;;4957220;28;20496;-83
2023/04/30 04:48:55;;;;;;;21.58;4.50;;;1.90;89.90;;;;;;4958234;28;20448;-83
2023/04/30 04:51:22;;;;;;;13.05;4.18;;;2.10;89.80;;;;;;4981392;28;20042;-82
2023/04/30 04:53:49;;;;;;;13.18;3.88;;;2.20;89.10;;;;;;4966194;28;20042;-83
2023/04/30 04:56:16;;;;;;;14.65;4.13;;;2.30;89.30;;;;;;4957350;28;20393;-82
2023/04/30 04:58:44;;;;;;;17.27;3.55;;;2.40;88.30;;;;;;4979889;28;20134;-82
2023/04/30 05:01:11;;;;;;;10.93;3.80;;;2.50;87.10;;;;;;4956224;28;20051;-82
2023/04/30 05:03:38;;;;;;;10.00;3.17;;;2.70;85.40;;;;;;4976655;28;20496;-83
2023/04/30 05:06:05;;;;;;;17.92;4.28;;;2.80;84.90;;;;;;4961287;28;20064;-83
2023/04/30 05:08:32;;;;;;;16.20;3.88;;;2.90;83.20;;;;;;4970940;28;20142;-83
2023/04/30 05:10:58;;;;;;;18.52;3.67;;;3.00;82.80;;;;;;4954933;28;20043;-83
2023/04/30 05:13:59;;;;;;;12.85;3.92;;;3.10;82.70;;;;;;4965245;28;20200;-83
2023/04/30 05:16:26;;;;;;;11.38;2.78;;;3.20;81.40;;;;;;4959033;28;20609;-75
2023/04/30 05:18:53;;;;;;;16.42;4.75;;;3.30;81.50;;;;;;4955815;28;20053;-75
2023/04/30 05:21:20;;;;;;;9.50;3.53;;;3.40;80.50;;;;;;4959373;28;20696;-75
2023/04/30 05:23:47;;;;;;;7.68;3.15;;;3.50;80.40;;;;;;4970325;28;20069;-75
2023/04/30 05:26:13;;;;;;;9.63;3.20;;;3.60;80.10;;;;;;4967500;28;20054;-75
2023/04/30 05:28:40;;;;;;;15.10;2.97;;;3.70;79.30;;;;;;4970572;28;20411;-75
2023/04/30 05:31:07;;;;;;;18.58;3.22;;;3.80;78.10;;;;;;4952508;28;20050;-75
2023/04/30 05:33:35;;;;;;;7.65;2.95;;;3.90;77.40;;;;;;4956660;28;20073;-76
2023/04/30 05:36:03;;;;;;;15.90;2.97;;;4.00;77.10;;;;;;4956744;28;20078;-75
2023/04/30 05:38:29;;;;;;;13.38;3.40;;;4.10;77.20;;;;;;4973921;28;20102;-75
2023/04/30 05:40:56;;;;;;;6.13;2.92;;;4.30;76.50;;;;;;4956928;28;20318;-75
2023/04/30 05:43:23;;;;;;;7.75;2.85;;;4.40;76.40;;;;;;4958943;28;20050;-75
2023/04/30 05:45:50;;;;;;;10.38;3.05;;;4.50;75.80;;;;;;4951376;28;20082;-75
2023/04/30 05:48:17;;;;;;;11.20;2.60;;;4.60;76.30;;;;;;4956383;28;20647;-76
2023/04/30 05:50:43;;;;;;;8.63;2.83;;;4.80;75.30;;;;;;4958932;28;20057;-75
2023/04/30 05:53:10;;;;;;;12.18;2.53;;;4.90;74.90;;;;;;4976235;28;20476;-76
2023/04/30 05:55:37;;;;;;;10.75;3.25;;;4.90;74.60;;;;;;4969620;28;20556;-76
2023/04/30 05:58:05;;;;;;;11.75;2.75;;;5.00;74.90;;;;;;4954938;28;20051;-76
2023/04/30 06:00:32;;;;;;;10.73;2.78;;;5.10;75.10;;;;;;4957620;28;20094;-73
2023/04/30 06:02:58;;;;;;;7.88;3.13;;;5.20;73.40;;;;;;4957537;28;20075;-73
2023/04/30 06:05:26;;;;;;;17.85;3.13;;;5.30;73.80;;;;;;4954800;28;20153;-74
2023/04/30 06:07:53;;;;;;;12.15;2.88;;;5.50;73.30;;;;;;4947505;28;20051;-73
2023/04/30 06:10:20;;;;;;;18.25;3.65;;;5.70;72.50;;;;;;4951123;28;20047;-73
2023/04/30 06:12:47;;;;;;;8.60;2.72;;;5.90;73.30;;;;;;4954689;28;20057;-73
2023/04/30 06:15:14;;;;;;;22.80;2.92;;;6.20;72.30;;;;;;4975012;28;20760;-75
2023/04/30 06:17:41;;;;;;;12.02;3.45;;;6.50;71.10;;;;;;4964681;28;20046;-73
2023/04/30 06:20:08;;;;;;;10.02;2.65;;;6.80;69.50;;;;;;4972343;28;20168;-72
2023/04/30 06:22:35;;;;;;;9.88;2.35;;;7.10;69.20;;;;;;4958842;28;20058;-72
2023/04/30 06:25:02;;;;;;;10.95;2.50;;;7.20;69.80;;;;;;4960216;28;20427;-72
2023/04/30 06:27:31;;;;;;;13.27;2.30;;;7.30;68.20;;;;;;4988305;23;20046;-81
2023/04/30 06:29:59;;;;;;;9.60;2.40;;;7.60;67.50;;;;;;4994410;28;20053;-81
2023/04/30 06:32:26;;;;;;;15.70;3.63;;;7.80;66.20;;;;;;4996290;28;20110;-73
2023/04/30 06:34:54;;;;;;;12.77;2.70;;;8.20;65.90;;;;;;5002033;28;20050;-73
2023/04/30 06:37:21;;;;;;;7.43;2.70;;;8.50;65.40;;;;;;4974452;28;20478;-74
2023/04/30 06:39:48;;;;;;;12.15;3.10;;;8.90;64.00;;;;;;4991131;28;20057;-73
2023/04/30 06:42:15;;;;;;;6.80;2.55;;;9.30;61.30;;;;;;5004677;23;20054;-74
2023/04/30 06:44:42;;;;;;;11.20;2.75;;;9.50;62.10;;;;;;4994103;28;20046;-75
2023/04/30 06:47:08;;;;;;;10.95;2.60;;;9.80;61.20;;;;;;4996229;28;20761;-74
2023/04/30 06:49:35;;;;;;;13.40;3.05;;;10.20;59.20;;;;;;4994491;28;20375;-73
2023/04/30 06:52:03;;;;;;;7.47;2.25;;;10.10;59.50;;;;;;4985582;28;20046;-75
2023/04/30 06:54:30;;;;;;;8.18;2.63;;;9.90;58.60;;;;;;4996594;28;20049;-75
2023/04/30 06:56:57;;;;;;;9.35;2.78;;;10.40;59.10;;;;;;4973573;28;20056;-75
2023/04/30 06:59:23;;;;;;;10.63;3.13;;;10.50;59.20;;;;;;4966939;28;20054;-74
2023/04/30 07:01:50;;;;;;;8.65;2.20;;;11.60;56.70;;;;;;4989610;28;20080;-77
2023/04/30 07:04:18;;;;;;;10.35;2.45;;;11.50;54.80;;;;;;5000151;28;20049;-75
2023/04/30 07:06:45;;;;;;;8.15;2.60;;;11.70;53.90;;;;;;4981826;28;20054;-75
2023/04/30 07:09:14;;;;;;;5.47;2.80;;;11.80;51.80;;;;;;4985322;28;20542;-78
2023/04/30 07:11:41;;;;;;;7.75;2.80;;;11.30;55.10;;;;;;4988139;28;20466;-81
2023/04/30 07:14:08;;;;;;;8.25;2.78;;;11.90;53.70;;;;;;4981350;28;20049;-78
2023/04/30 07:16:35;;;;;;;8.65;2.20;;;11.90;53.40;;;;;;4982424;28;20065;-78
2023/04/30 07:19:02;;;;;;;9.82;2.40;;;12.40;53.00;;;;;;4984101;28;20066;-76
2023/04/30 07:24:56;;;;;;;7.05;2.33;;;12.80;50.60;;;;;;4977813;28;20364;-79
2023/04/30 07:27:23;;;;;;;11.55;2.75;;;12.60;49.20;;;;;;4978233;28;20054;-79
2023/04/30 07:29:50;;;;;;;13.35;2.83;;;11.80;52.90;;;;;;4980606;28;20440;-80
2023/04/30 07:32:17;;;;;;;8.85;3.40;;;11.30;52.00;;;;;;4979144;28;20129;-80
2023/04/30 07:34:44;;;;;;;8.38;2.50;;;10.60;54.20;;;;;;4975110;28;20269;-80
2023/04/30 07:37:12;;;;;;;9.40;3.25;;;9.90;55.30;;;;;;4965522;28;20155;-78
2023/04/30 07:39:39;;;;;;;9.80;3.00;;;9.70;56.20;;;;;;4979015;28;20061;-80
2023/04/30 07:42:06;;;;;;;7.35;2.35;;;9.70;60.00;;;;;;4963731;28;20054;-76
2023/04/30 07:44:32;;;;;;;7.35;1.90;;;10.90;59.80;;;;;;4954573;28;20552;-76
2023/04/30 07:46:59;;;;;;;7.75;1.95;;;12.50;53.90;;;;;;4978005;28;20415;-77
2023/04/30 07:49:27;;;;;;;6.20;2.20;;;13.20;51.90;;;;;;4957549;28;20597;-79
2023/04/30 07:51:53;;;;;;;7.90;2.50;;;13.10;52.50;;;;;;4976271;28;20721;-80
2023/04/30 07:54:20;;;;;;;12.43;2.55;;;13.40;49.90;;;;;;4971647;28;20042;-76
2023/04/30 07:56:47;;;;;;;9.82;2.10;;;12.80;52.00;;;;;;4976720;28;20054;-76
2023/04/30 07:59:14;;;;;;;9.30;2.15;;;12.30;50.50;;;;;;4974442;28;20051;-75
2023/04/30 08:01:41;;;;;;;6.43;2.20;;;11.50;51.80;;;;;;4968224;28;20053;-75
2023/04/30 08:04:08;;;;;;;7.78;2.13;;;10.80;57.00;;;;;;4971993;28;20148;-78
2023/04/30 08:06:35;;;;;;;9.35;3.33;;;11.70;56.00;;;;;;4973557;28;20062;-77
2023/04/30 08:09:03;;;;;;;13.07;3.20;;;12.70;54.10;;;;;;4976616;28;20042;-80
2023/04/30 08:11:33;;;;;;;14.25;2.60;;;13.00;50.60;;;;;;4976987;28;20051;-79
2023/04/30 08:14:00;;;;;;;8.52;2.47;;;12.50;51.10;;;;;;4977004;28;20063;-79
2023/04/30 08:16:27;;;;;;;13.18;2.60;;;11.70;53.10;;;;;;4986641;28;20058;-74
2023/04/30 08:18:54;;;;;;;21.02;3.15;;;11.50;52.60;;;;;;4977375;28;20114;-73
2023/04/30 08:21:21;;;;;;;16.05;3.53;;;11.10;57.40;;;;;;5062856;23;20457;-73
2023/04/30 08:23:48;;;;;;;6.82;2.00;;;12.20;56.10;;;;;;4994174;28;20049;-73
2023/04/30 08:26:15;;;;;;;9.43;2.10;;;13.20;54.10;;;;;;5000899;28;20050;-73
2023/04/30 08:28:42;;;;;;;7.10;1.95;;;13.40;52.20;;;;;;4997354;28;20493;-73
2023/04/30 08:31:09;;;;;;;5.75;2.40;;;14.30;50.40;;;;;;4995662;28;20056;-73
2023/04/30 08:33:36;;;;;;;5.55;2.08;;;14.10;47.70;;;;;;4996225;28;20049;-73
2023/04/30 08:36:03;;;;;;;9.05;2.50;;;13.00;50.50;;;;;;5000416;28;20045;-73
2023/04/30 08:38:30;;;;;;;8.38;2.47;;;12.40;52.00;;;;;;4999874;28;20054;-73
2023/04/30 08:41:11;;;;;;;12.63;2.42;;;12.10;52.40;;;;;;4998349;28;20101;-73
2023/04/30 08:43:40;;;;;;;5.55;1.80;;;11.90;54.50;;;;;;4996767;28;20056;-73
2023/04/30 08:46:07;;;;;;;13.07;2.03;;;12.10;51.40;;;;;;4995310;28;20486;-73
2023/04/30 08:48:34;;;;;;;8.07;2.03;;;13.20;51.30;;;;;;4998192;28;20911;-74
2023/04/30 08:51:02;;;;;;;11.73;2.08;;;13.90;49.80;;;;;;4999534;28;20510;-73
2023/04/30 08:53:40;;;;;;;4.50;2.20;;;14.30;50.40;;;;;;4990460;28;20407;-74
2023/04/30 08:56:10;;;;;;;3.60;2.05;;;15.10;48.70;;;;;;4994403;28;20046;-74
2023/04/30 08:58:36;;;;;;;6.90;2.35;;;15.50;49.10;;;;;;4996624;28;20053;-73
2023/04/30 09:01:06;;;;;;;9.55;2.25;;;15.00;46.90;;;;;;4996934;28;20392;-74
2023/04/30 09:03:33;;;;;;;9.38;1.88;;;14.70;48.40;;;;;;4995782;28;20136;-73
2023/04/30 09:06:00;;;;;;;3.38;1.80;;;14.60;48.80;;;;;;4994088;28;20107;-73
2023/04/30 09:08:44;;;;;;;5.80;2.33;;;14.40;48.00;;;;;;4999464;28;20062;-74
2023/04/30 09:11:22;;;;;;;7.75;2.17;;;14.80;47.00;;;;;;4997779;28;20039;-73
2023/04/30 09:13:56;;;;;;;5.30;1.67;;;15.80;47.50;;;;;;4989616;28;20052;-73
2023/04/30 09:16:24;;;;;;;7.60;2.00;;;16.00;45.80;;;;;;4999708;28;20057;-73
2023/04/30 09:18:52;;;;;;;6.57;2.30;;;16.30;45.40;;;;;;5001403;28;20451;-74
2023/04/30 09:21:33;;;;;;;6.80;2.10;;;16.00;46.90;;;;;;4995297;28;20050;-74
2023/04/30 09:24:02;;;;;;;4.72;1.75;;;15.90;43.70;;;;;;4996891;28;20054;-74
2023/04/30 09:26:37;;;;;;;5.07;2.15;;;15.30;46.00;;;;;;4993704;28;20050;-74
2023/04/30 09:29:09;;;;;;;8.50;2.25;;;15.90;45.00;;;;;;4995920;28;20045;-74
2023/04/30 09:31:37;;;;;;;5.38;1.60;;;15.80;45.40;;;;;;4995069;28;20467;-74
2023/04/30 09:34:05;;;;;;;10.82;2.13;;;16.80;44.80;;;;;;4991768;28;20104;-74
2023/04/30 09:36:33;;;;;;;7.57;1.60;;;17.30;44.80;;;;;;4990892;28;20323;-74
2023/04/30 09:39:12;;;;;;;7.82;1.58;;;18.50;44.80;;;;;;4999631;28;20077;-74
2023/04/30 09:41:42;;;;;;;5.63;2.38;;;18.20;42.40;;;;;;4998328;28;20295;-77
2023/04/30 09:44:29;;;;;;;8.73;2.10;;;17.50;42.40;;;;;;4993879;28;20050;-75
2023/04/30 09:46:57;;;;;;;4.25;1.95;;;17.90;43.00;;;;;;4993194;28;20053;-75
2023/04/30 09:49:26;;;;;;;9.55;1.98;;;18.80;41.70;;;;;;4998247;28;20281;-75
2023/04/30 09:52:02;;;;;;;8.13;2.47;;;19.40;40.90;;;;;;4992808;28;20061;-75
2023/04/30 09:54:30;;;;;;;13.60;3.47;;;17.20;42.30;;;;;;4990888;28;20046;-75
2023/04/30 09:56:59;;;;;;;9.55;2.25;;;17.50;44.00;;;;;;4995500;28;20053;-75
2023/04/30 09:59:30;;;;;;;3.20;1.63;;;17.80;44.20;;;;;;5001224;28;20117;-75
2023/04/30 10:02:07;;;;;;;5.28;2.60;;;17.80;43.70;;;;;;5001517;28;20064;-75
2023/04/30 10:04:41;;;;;;;3.72;1.63;;;18.00;41.60;;;;;;5002238;28;20190;-76
2023/04/30 10:07:10;;;;;;;4.15;1.95;;;17.50;41.00;;;;;;4994442;28;20405;-75
2023/04/30 10:09:51;;;;;;;7.25;2.33;;;17.10;44.80;;;;;;4999024;28;20052;-75
2023/04/30 10:12:38;;;;;;;9.40;2.33;;;17.90;42.60;;;;;;4997880;28;20205;-76
2023/04/30 10:15:15;;;;;;;8.30;2.63;;;16.10;43.30;;;;;;4998888;28;20411;-75
2023/04/30 10:17:46;;;;;;;9.60;2.40;;;15.10;48.50;;;;;;5000326;28;20054;-75
2023/04/30 10:20:16;;;;;;;14.05;2.90;;;15.00;47.30;;;;;;4992645;28;20566;-75
2023/04/30 10:22:45;;;;;;;5.13;2.20;;;15.50;48.50;;;;;;4993419;28;20104;-75
2023/04/30 10:25:12;;;;;;;6.00;2.22;;;16.20;46.10;;;;;;4987514;28;20054;-75
2023/04/30 10:27:39;;;;;;;6.93;2.28;;;17.00;43.70;;;;;;4999147;28;20049;-75
2023/04/30 10:30:09;;;;;;;7.35;2.30;;;17.20;43.10;;;;;;4992199;28;20041;-76
2023/04/30 10:33:15;;;;;;;6.35;2.10;;;17.80;42.60;;;;;;4990537;28;20052;-76
2023/04/30 10:35:51;;;;;;;8.43;2.20;;;17.40;40.90;;;;;;4957355;28;20316;-76
2023/04/30 10:38:23;;;;;;;6.82;1.98;;;16.70;42.30;;;;;;4992803;28;20057;-76
2023/04/30 10:41:05;;;;;;;6.32;2.35;;;16.80;46.10;;;;;;4993033;28;20108;-75
2023/04/30 10:43:34;;;;;;;4.13;2.22;;;17.60;43.10;;;;;;4991663;28;20326;-75
2023/04/30 10:46:01;;;;;;;7.95;2.30;;;17.50;42.30;;;;;;4988982;28;20081;-75
2023/04/30 10:48:30;;;;;;;5.75;2.42;;;16.60;43.80;;;;;;4987977;28;20058;-76
2023/04/30 10:50:58;;;;;;;10.52;2.25;;;15.80;44.90;;;;;;4996846;28;20263;-75
2023/04/30 10:53:26;;;;;;;5.38;2.30;;;16.60;44.90;;;;;;4996211;28;20052;-75
2023/04/30 10:56:00;;;;;;;4.22;2.13;;;17.00;44.90;;;;;;4992275;28;20046;-75
2023/04/30 10:58:35;;;;;;;5.32;2.13;;;18.00;44.20;;;;;;4988510;28;20502;-74
2023/04/30 11:01:07;;;;;;;7.53;2.25;;;18.20;44.70;;;;;;4990097;28;20046;-74
2023/04/30 11:03:36;;;;;;;4.40;2.00;;;19.80;42.80;;;;;;4990639;28;20140;-75
2023/04/30 11:06:13;;;;;;;4.72;2.15;;;19.80;40.90;;;;;;5000262;28;20049;-75
2023/04/30 11:08:45;;;;;;;7.10;2.10;;;19.00;38.70;;;;;;4987296;28;20057;-75
2023/04/30 11:11:22;;;;;;;5.63;1.67;;;18.10;42.60;;;;;;4995140;28;20053;-75
2023/04/30 11:14:00;;;;;;;5.00;1.98;;;17.80;41.00;;;;;;4992886;28;20077;-74
2023/04/30 11:16:33;;;;;;;4.47;1.83;;;17.70;42.40;;;;;;4996394;28;20058;-75
2023/04/30 11:19:10;;;;;;;6.25;1.95;;;18.30;42.30;;;;;;4998221;28;20164;-74
2023/04/30 11:21:59;;;;;;;6.25;1.90;;;18.70;39.80;;;;;;5000679;28;20061;-74
2023/04/30 11:25:04;;;;;;;4.30;1.90;;;17.20;42.20;;;;;;4997974;28;20490;-75
2023/04/30 11:27:33;;;;;;;4.80;1.60;;;18.20;40.50;;;;;;4998567;28;20474;-75
2023/04/30 11:30:01;;;;;;;3.55;1.45;;;18.00;43.50;;;;;;4999402;28;20049;-75
2023/04/30 11:32:33;;;;;;;5.25;1.88;;;19.50;41.40;;;;;;4989606;28;20046;-74
2023/04/30 11:35:05;;;;;;;6.03;1.77;;;20.20;39.20;;;;;;4994680;28;20446;-74
2023/04/30 11:37:38;;;;;;;4.68;1.80;;;19.70;40.60;;;;;;4994560;28;20053;-77
2023/04/30 11:40:10;;;;;;;8.27;1.80;;;20.10;40.30;;;;;;4998207;28;20045;-75
2023/04/30 11:42:42;;;;;;;8.40;2.17;;;19.70;39.20;;;;;;4999878;28;20102;-75
2023/04/30 11:45:19;;;;;;;7.35;1.63;;;19.20;41.00;;;;;;5000912;28;20494;-76
2023/04/30 11:47:49;;;;;;;3.88;1.50;;;19.00;40.80;;;;;;4994365;28;20128;-75
2023/04/30 11:50:27;;;;;;;7.43;1.85;;;19.40;42.00;;;;;;4989422;28;20560;-77
2023/04/30 11:52:56;;;;;;;6.70;1.92;;;20.50;40.40;;;;;;4997132;28;20048;-78
2023/04/30 11:55:25;;;;;;;4.85;1.60;;;21.00;39.50;;;;;;4994927;28;20682;-75
2023/04/30 11:57:54;;;;;;;5.50;1.92;;;19.50;39.40;;;;;;4995732;28;20057;-77
2023/04/30 12:00:26;;;;;;;5.15;2.20;;;18.90;41.30;;;;;;4992239;28;20042;-78
2023/04/30 12:02:54;;;;;;;4.50;1.80;;;19.20;41.20;;;;;;4989743;28;20161;-81
2023/04/30 12:05:23;;;;;;;3.00;1.42;;;19.00;40.70;;;;;;5002197;28;20050;-78
2023/04/30 12:07:55;;;;;;;7.63;2.38;;;18.80;40.40;;;;;;5002609;28;20410;-76
2023/04/30 12:10:24;;;;;;;6.75;1.70;;;18.50;40.10;;;;;;5000794;28;20054;-73
2023/04/30 12:12:53;;;;;;;6.40;2.00;;;18.30;40.90;;;;;;4998066;28;20077;-74
2023/04/30 12:15:25;;;;;;;6.25;1.88;;;18.90;40.50;;;;;;4990876;28;20054;-74
2023/04/30 12:17:55;;;;;;;7.78;2.00;;;19.70;41.20;;;;;;4996868;28;20085;-76
2023/04/30 12:20:24;;;;;;;3.85;1.90;;;19.60;40.60;;;;;;4992599;28;20767;-75
2023/04/30 12:22:51;;;;;;;3.05;1.70;;;19.50;41.20;;;;;;4996176;28;20273;-75
2023/04/30 12:25:20;;;;;;;9.38;1.67;;;20.30;40.10;;;;;;4998504;28;20126;-74
2023/04/30 12:27:52;;;;;;;3.53;1.63;;;19.20;40.10;;;;;;4989283;28;21014;-74
2023/04/30 12:30:20;;;;;;;7.85;1.80;;;19.20;40.10;;;;;;4989658;28;20534;-73
2023/04/30 12:32:52;;;;;;;6.60;1.95;;;18.90;39.80;;;;;;4991424;28;20050;-74
2023/04/30 12:35:21;;;;;;;6.22;1.98;;;18.90;40.40;;;;;;4993456;28;20561;-73
2023/04/30 12:37:52;;;;;;;3.55;1.58;;;19.20;39.90;;;;;;4998947;28;20507;-74
2023/04/30 12:40:25;;;;;;;4.43;2.20;;;19.50;39.80;;;;;;4990730;28;20487;-74
2023/04/30 12:43:03;;;;;;;6.85;1.90;;;19.90;39.90;;;;;;4985798;28;20125;-74
2023/04/30 12:45:50;;;;;;;5.68;1.75;;;20.90;39.20;;;;;;4993969;28;20061;-74
2023/04/30 12:48:19;;;;;;;5.47;1.88;;;19.70;39.30;;;;;;4996100;28;20133;-74
2023/04/30 12:50:54;;;;;;;3.25;1.35;;;19.50;39.00;;;;;;4998164;28;20053;-74
2023/04/30 12:53:22;;;;;;;1.98;1.40;;;19.60;39.20;;;;;;4989138;28;20054;-74
2023/04/30 12:56:27;;;;;;;6.20;1.42;;;20.30;39.60;;;;;;4986587;28;20491;-74
2023/04/30 12:58:54;;;;;;;2.35;1.88;;;20.40;38.40;;;;;;4911933;29;20644;-74
2023/04/30 13:01:23;;;;;;;5.45;1.70;;;19.60;36.90;;;;;;4916826;29;20059;-73
2023/04/30 13:03:51;;;;;;;5.90;1.60;;;18.90;39.40;;;;;;4942531;28;20049;-74
2023/04/30 13:06:21;;;;;;;6.90;2.08;;;19.20;38.40;;;;;;4993149;28;20046;-74
2023/04/30 13:08:48;;;;;;;4.45;1.73;;;18.70;40.30;;;;;;4998838;28;20106;-74
2023/04/30 13:11:25;;;;;;;5.57;1.58;;;19.60;38.40;;;;;;4994940;28;20723;-74
2023/04/30 13:13:55;;;;;;;3.08;1.73;;;18.40;40.30;;;;;;4992158;28;20821;-74
2023/04/30 13:16:26;;;;;;;6.47;1.67;;;19.20;38.90;;;;;;4996162;28;20306;-74
2023/04/30 13:18:53;;;;;;;5.40;2.00;;;18.20;40.50;;;;;;4993338;28;20072;-74